sensor_id;sensor_type;location;lat;lon;timestamp;P1;durP1;ratioP1;P2;durP2;ratioP2
49502;SDS011;35409;48.776;9.204;2022-07-18T00:01:32;3.03;;;1.70;;
49502;SDS011;35409;48.776;9.204;2022-07-18T00:03:58;2.38;;;1.50;;
49502;SDS011;35409;48.776;9.204;2022-07-18T00:06:24;1.45;;;1.20;;
49502;SDS011;35409;48.776;9.204;2022-07-18T00:08:50;2.53;;;1.40;;
49502;SDS011;35409;48.776;9.204;2022-07-18T00:11:15;3.50;;;1.65;;
49502;SDS011;35409;48.776;9.204;2022-07-18T00:13:41;2.53;;;1.58;;
49502;SDS011;35409;48.776;9.204;2022-07-18T00:16:07;3.83;;;2.08;;
49502;SDS011;35409;48.776;9.204;2022-07-18T00:18:33;3.75;;;1.52;;
49502;SDS011;35409;48.776;9.204;2022-07-18T00:20:59;5.65;;;1.92;;
49502;SDS011;35409;48.776;9.204;2022-07-18T00:23:24;2.20;;;1.60;;
49502;SDS011;35409;48.776;9.204;2022-07-18T00:25:50;2.85;;;1.60;;
49502;SDS011;35409;48.776;9.204;2022-07-18T00:28:16;2.58;;;1.52;;
49502;SDS011;35409;48.776;9.204;2022-07-18T00:30:41;2.58;;;1.60;;
49502;SDS011;35409;48.776;9.204;2022-07-18T00:33:07;1.73;;;1.20;;
49502;SDS011;35409;48.776;9.204;2022-07-18T00:35:33;2.75;;;1.50;;
49502;SDS011;35409;48.776;9.204;2022-07-18T00:37:59;3.58;;;1.83;;
49502;SDS011;35409;48.776;9.204;2022-07-18T00:40:26;1.70;;;1.60;;
49502;SDS011;35409;48.776;9.204;2022-07-18T00:42:53;3.10;;;1.58;;
49502;SDS011;35409;48.776;9.204;2022-07-18T00:45:18;3.50;;;1.65;;
49502;SDS011;35409;48.776;9.204;2022-07-18T00:47:44;3.47;;;1.50;;
49502;SDS011;35409;48.776;9.204;2022-07-18T00:50:10;1.92;;;1.45;;
49502;SDS011;35409;48.776;9.204;2022-07-18T00:52:36;4.38;;;1.70;;
49502;SDS011;35409;48.776;9.204;2022-07-18T00:55:03;2.47;;;1.40;;
49502;SDS011;35409;48.776;9.204;2022-07-18T00:57:30;1.98;;;1.50;;
49502;SDS011;35409;48.776;9.204;2022-07-18T00:59:56;1.85;;;1.30;;
49502;SDS011;35409;48.776;9.204;2022-07-18T01:02:40;2.13;;;1.80;;
49502;SDS011;35409;48.776;9.204;2022-07-18T01:05:07;3.63;;;1.45;;
49502;SDS011;35409;48.776;9.204;2022-07-18T01:07:33;2.92;;;1.45;;
49502;SDS011;35409;48.776;9.204;2022-07-18T01:10:05;1.50;;;1.40;;
49502;SDS011;35409;48.776;9.204;2022-07-18T01:12:31;4.30;;;1.80;;
49502;SDS011;35409;48.776;9.204;2022-07-18T01:14:57;2.85;;;1.63;;
49502;SDS011;35409;48.776;9.204;2022-07-18T01:17:23;3.90;;;2.13;;
49502;SDS011;35409;48.776;9.204;2022-07-18T01:19:49;3.80;;;1.85;;
49502;SDS011;35409;48.776;9.204;2022-07-18T01:22:15;2.00;;;1.67;;
49502;SDS011;35409;48.776;9.204;2022-07-18T01:24:43;1.65;;;1.33;;
49502;SDS011;35409;48.776;9.204;2022-07-18T01:27:12;1.77;;;1.50;;
49502;SDS011;35409;48.776;9.204;2022-07-18T01:29:42;1.67;;;1.33;;
49502;SDS011;35409;48.776;9.204;2022-07-18T01:32:08;1.65;;;1.35;;
49502;SDS011;35409;48.776;9.204;2022-07-18T01:34:35;2.95;;;1.50;;
49502;SDS011;35409;48.776;9.204;2022-07-18T01:37:01;2.45;;;1.58;;
49502;SDS011;35409;48.776;9.204;2022-07-18T01:39:28;2.00;;;1.30;;
49502;SDS011;35409;48.776;9.204;2022-07-18T01:41:55;2.95;;;1.65;;
49502;SDS011;35409;48.776;9.204;2022-07-18T01:46:51;1.00;;;0.90;;
49502;SDS011;35409;48.776;9.204;2022-07-18T01:49:17;2.38;;;1.40;;
49502;SDS011;35409;48.776;9.204;2022-07-18T01:51:46;1.38;;;1.27;;
49502;SDS011;35409;48.776;9.204;2022-07-18T01:54:13;1.92;;;1.00;;
49502;SDS011;35409;48.776;9.204;2022-07-18T01:56:39;3.88;;;1.80;;
49502;SDS011;35409;48.776;9.204;2022-07-18T01:59:05;1.90;;;1.30;;
49502;SDS011;35409;48.776;9.204;2022-07-18T02:01:31;2.15;;;1.30;;
49502;SDS011;35409;48.776;9.204;2022-07-18T02:03:57;2.33;;;1.35;;
49502;SDS011;35409;48.776;9.204;2022-07-18T02:06:22;2.60;;;1.27;;
49502;SDS011;35409;48.776;9.204;2022-07-18T02:08:48;2.58;;;1.50;;
49502;SDS011;35409;48.776;9.204;2022-07-18T02:11:14;1.10;;;1.00;;
49502;SDS011;35409;48.776;9.204;2022-07-18T02:13:40;3.13;;;1.80;;
49502;SDS011;35409;48.776;9.204;2022-07-18T02:16:06;1.73;;;1.25;;
49502;SDS011;35409;48.776;9.204;2022-07-18T02:18:32;2.63;;;1.80;;
49502;SDS011;35409;48.776;9.204;2022-07-18T02:20:58;2.00;;;1.50;;
49502;SDS011;35409;48.776;9.204;2022-07-18T02:23:24;2.28;;;1.50;;
49502;SDS011;35409;48.776;9.204;2022-07-18T02:25:50;2.65;;;1.77;;
49502;SDS011;35409;48.776;9.204;2022-07-18T02:28:15;1.88;;;1.58;;
49502;SDS011;35409;48.776;9.204;2022-07-18T02:30:41;2.33;;;1.30;;
49502;SDS011;35409;48.776;9.204;2022-07-18T02:33:07;1.40;;;1.17;;
49502;SDS011;35409;48.776;9.204;2022-07-18T02:35:32;1.92;;;1.42;;
49502;SDS011;35409;48.776;9.204;2022-07-18T02:37:58;2.15;;;1.48;;
49502;SDS011;35409;48.776;9.204;2022-07-18T02:40:25;3.20;;;1.77;;
49502;SDS011;35409;48.776;9.204;2022-07-18T02:42:50;3.28;;;1.67;;
49502;SDS011;35409;48.776;9.204;2022-07-18T02:45:16;2.72;;;1.67;;
49502;SDS011;35409;48.776;9.204;2022-07-18T02:47:42;2.63;;;1.20;;
49502;SDS011;35409;48.776;9.204;2022-07-18T02:50:08;2.38;;;1.65;;
49502;SDS011;35409;48.776;9.204;2022-07-18T02:52:36;2.35;;;1.48;;
49502;SDS011;35409;48.776;9.204;2022-07-18T02:55:03;3.55;;;1.88;;
49502;SDS011;35409;48.776;9.204;2022-07-18T02:57:29;2.50;;;1.67;;
49502;SDS011;35409;48.776;9.204;2022-07-18T02:59:55;4.40;;;2.70;;
49502;SDS011;35409;48.776;9.204;2022-07-18T03:02:21;5.72;;;2.50;;
49502;SDS011;35409;48.776;9.204;2022-07-18T03:04:47;6.43;;;3.15;;
49502;SDS011;35409;48.776;9.204;2022-07-18T03:07:13;7.00;;;4.18;;
49502;SDS011;35409;48.776;9.204;2022-07-18T03:09:38;4.95;;;3.47;;
49502;SDS011;35409;48.776;9.204;2022-07-18T03:12:04;6.47;;;4.13;;
49502;SDS011;35409;48.776;9.204;2022-07-18T03:14:30;6.57;;;4.07;;
49502;SDS011;35409;48.776;9.204;2022-07-18T03:16:56;6.55;;;3.90;;
49502;SDS011;35409;48.776;9.204;2022-07-18T03:19:22;5.63;;;3.38;;
49502;SDS011;35409;48.776;9.204;2022-07-18T03:21:48;4.72;;;3.13;;
49502;SDS011;35409;48.776;9.204;2022-07-18T03:24:14;7.00;;;3.00;;
49502;SDS011;35409;48.776;9.204;2022-07-18T03:26:39;6.10;;;2.63;;
49502;SDS011;35409;48.776;9.204;2022-07-18T03:29:06;3.30;;;2.00;;
49502;SDS011;35409;48.776;9.204;2022-07-18T03:31:32;2.70;;;1.90;;
49502;SDS011;35409;48.776;9.204;2022-07-18T03:33:57;3.33;;;1.88;;
49502;SDS011;35409;48.776;9.204;2022-07-18T03:36:24;2.58;;;1.80;;
49502;SDS011;35409;48.776;9.204;2022-07-18T03:38:49;3.33;;;1.60;;
49502;SDS011;35409;48.776;9.204;2022-07-18T03:41:15;2.58;;;1.63;;
49502;SDS011;35409;48.776;9.204;2022-07-18T03:43:41;2.05;;;1.60;;
49502;SDS011;35409;48.776;9.204;2022-07-18T03:46:07;3.45;;;1.90;;
49502;SDS011;35409;48.776;9.204;2022-07-18T03:48:32;4.10;;;1.98;;
49502;SDS011;35409;48.776;9.204;2022-07-18T03:50:59;3.60;;;1.65;;
49502;SDS011;35409;48.776;9.204;2022-07-18T03:53:25;3.55;;;1.95;;
49502;SDS011;35409;48.776;9.204;2022-07-18T03:55:51;2.58;;;1.60;;
49502;SDS011;35409;48.776;9.204;2022-07-18T03:58:17;1.73;;;1.35;;
49502;SDS011;35409;48.776;9.204;2022-07-18T04:00:42;3.15;;;1.80;;
49502;SDS011;35409;48.776;9.204;2022-07-18T04:03:08;2.13;;;1.80;;
49502;SDS011;35409;48.776;9.204;2022-07-18T04:05:34;2.85;;;1.83;;
49502;SDS011;35409;48.776;9.204;2022-07-18T04:07:59;4.53;;;1.60;;
49502;SDS011;35409;48.776;9.204;2022-07-18T04:10:25;1.85;;;1.58;;
49502;SDS011;35409;48.776;9.204;2022-07-18T04:12:52;3.85;;;1.77;;
49502;SDS011;35409;48.776;9.204;2022-07-18T04:15:19;3.88;;;1.70;;
49502;SDS011;35409;48.776;9.204;2022-07-18T04:17:46;2.40;;;1.70;;
49502;SDS011;35409;48.776;9.204;2022-07-18T04:20:13;2.72;;;1.70;;
49502;SDS011;35409;48.776;9.204;2022-07-18T04:22:45;2.95;;;1.50;;
49502;SDS011;35409;48.776;9.204;2022-07-18T04:25:14;5.38;;;2.05;;
49502;SDS011;35409;48.776;9.204;2022-07-18T04:27:40;3.40;;;1.92;;
49502;SDS011;35409;48.776;9.204;2022-07-18T04:30:06;3.60;;;2.40;;
49502;SDS011;35409;48.776;9.204;2022-07-18T04:32:33;2.67;;;1.90;;
49502;SDS011;35409;48.776;9.204;2022-07-18T04:34:59;2.78;;;1.60;;
49502;SDS011;35409;48.776;9.204;2022-07-18T04:37:24;3.88;;;1.65;;
49502;SDS011;35409;48.776;9.204;2022-07-18T04:39:50;2.88;;;1.77;;
49502;SDS011;35409;48.776;9.204;2022-07-18T04:42:15;3.58;;;2.00;;
49502;SDS011;35409;48.776;9.204;2022-07-18T04:44:41;4.05;;;2.08;;
49502;SDS011;35409;48.776;9.204;2022-07-18T04:47:06;2.95;;;1.80;;
49502;SDS011;35409;48.776;9.204;2022-07-18T04:49:32;2.65;;;2.00;;
49502;SDS011;35409;48.776;9.204;2022-07-18T04:51:58;3.47;;;2.10;;
49502;SDS011;35409;48.776;9.204;2022-07-18T04:54:23;4.28;;;1.90;;
49502;SDS011;35409;48.776;9.204;2022-07-18T04:56:49;3.58;;;2.08;;
49502;SDS011;35409;48.776;9.204;2022-07-18T04:59:14;2.60;;;1.92;;
49502;SDS011;35409;48.776;9.204;2022-07-18T05:01:40;3.72;;;2.20;;
49502;SDS011;35409;48.776;9.204;2022-07-18T05:04:06;2.17;;;1.80;;
49502;SDS011;35409;48.776;9.204;2022-07-18T05:06:31;4.68;;;1.90;;
49502;SDS011;35409;48.776;9.204;2022-07-18T05:08:57;7.28;;;2.65;;
49502;SDS011;35409;48.776;9.204;2022-07-18T05:11:23;3.17;;;2.03;;
49502;SDS011;35409;48.776;9.204;2022-07-18T05:13:48;5.10;;;2.20;;
49502;SDS011;35409;48.776;9.204;2022-07-18T05:16:14;3.55;;;2.15;;
49502;SDS011;35409;48.776;9.204;2022-07-18T05:18:39;5.07;;;2.45;;
49502;SDS011;35409;48.776;9.204;2022-07-18T05:21:05;3.58;;;2.20;;
49502;SDS011;35409;48.776;9.204;2022-07-18T05:23:31;3.75;;;2.47;;
49502;SDS011;35409;48.776;9.204;2022-07-18T05:25:57;5.82;;;2.67;;
49502;SDS011;35409;48.776;9.204;2022-07-18T05:28:22;5.75;;;2.60;;
49502;SDS011;35409;48.776;9.204;2022-07-18T05:30:48;3.53;;;2.45;;
49502;SDS011;35409;48.776;9.204;2022-07-18T05:33:14;6.03;;;2.85;;
49502;SDS011;35409;48.776;9.204;2022-07-18T05:35:39;5.32;;;2.80;;
49502;SDS011;35409;48.776;9.204;2022-07-18T05:38:05;6.78;;;2.28;;
49502;SDS011;35409;48.776;9.204;2022-07-18T05:40:30;5.85;;;2.58;;
49502;SDS011;35409;48.776;9.204;2022-07-18T05:42:56;3.15;;;2.60;;
49502;SDS011;35409;48.776;9.204;2022-07-18T05:45:23;4.85;;;2.67;;
49502;SDS011;35409;48.776;9.204;2022-07-18T05:47:49;6.13;;;2.95;;
49502;SDS011;35409;48.776;9.204;2022-07-18T05:50:15;3.80;;;2.88;;
49502;SDS011;35409;48.776;9.204;2022-07-18T05:52:41;3.30;;;2.90;;
49502;SDS011;35409;48.776;9.204;2022-07-18T05:55:07;3.33;;;2.40;;
49502;SDS011;35409;48.776;9.204;2022-07-18T05:57:33;4.80;;;2.85;;
49502;SDS011;35409;48.776;9.204;2022-07-18T05:59:59;5.68;;;2.75;;
49502;SDS011;35409;48.776;9.204;2022-07-18T06:02:25;3.90;;;2.80;;
49502;SDS011;35409;48.776;9.204;2022-07-18T06:04:51;5.13;;;2.95;;
49502;SDS011;35409;48.776;9.204;2022-07-18T06:07:17;5.13;;;2.80;;
49502;SDS011;35409;48.776;9.204;2022-07-18T06:09:42;4.25;;;2.63;;
49502;SDS011;35409;48.776;9.204;2022-07-18T06:12:08;5.75;;;2.85;;
49502;SDS011;35409;48.776;9.204;2022-07-18T06:14:33;6.40;;;3.20;;
49502;SDS011;35409;48.776;9.204;2022-07-18T06:16:59;4.10;;;2.58;;
49502;SDS011;35409;48.776;9.204;2022-07-18T06:19:25;3.75;;;2.60;;
49502;SDS011;35409;48.776;9.204;2022-07-18T06:21:51;5.18;;;2.90;;
49502;SDS011;35409;48.776;9.204;2022-07-18T06:24:16;9.27;;;3.13;;
49502;SDS011;35409;48.776;9.204;2022-07-18T06:26:42;6.97;;;3.03;;
49502;SDS011;35409;48.776;9.204;2022-07-18T06:29:08;3.95;;;3.17;;
49502;SDS011;35409;48.776;9.204;2022-07-18T06:31:33;5.05;;;2.92;;
49502;SDS011;35409;48.776;9.204;2022-07-18T06:33:59;6.38;;;3.03;;
49502;SDS011;35409;48.776;9.204;2022-07-18T06:36:25;5.97;;;3.10;;
49502;SDS011;35409;48.776;9.204;2022-07-18T06:38:50;4.68;;;3.00;;
49502;SDS011;35409;48.776;9.204;2022-07-18T06:41:17;9.68;;;3.58;;
49502;SDS011;35409;48.776;9.204;2022-07-18T06:43:43;6.00;;;3.10;;
49502;SDS011;35409;48.776;9.204;2022-07-18T06:46:09;7.53;;;3.20;;
49502;SDS011;35409;48.776;9.204;2022-07-18T06:48:35;6.85;;;3.53;;
49502;SDS011;35409;48.776;9.204;2022-07-18T06:51:04;6.45;;;3.40;;
49502;SDS011;35409;48.776;9.204;2022-07-18T06:53:30;9.70;;;3.38;;
49502;SDS011;35409;48.776;9.204;2022-07-18T06:55:56;5.43;;;3.28;;
49502;SDS011;35409;48.776;9.204;2022-07-18T06:58:22;7.75;;;3.05;;
49502;SDS011;35409;48.776;9.204;2022-07-18T07:00:48;7.00;;;3.03;;
49502;SDS011;35409;48.776;9.204;2022-07-18T07:03:15;8.00;;;3.60;;
49502;SDS011;35409;48.776;9.204;2022-07-18T07:05:40;5.18;;;3.10;;
49502;SDS011;35409;48.776;9.204;2022-07-18T07:08:06;12.15;;;3.65;;
49502;SDS011;35409;48.776;9.204;2022-07-18T07:10:31;10.85;;;3.45;;
49502;SDS011;35409;48.776;9.204;2022-07-18T07:12:57;4.55;;;3.10;;
49502;SDS011;35409;48.776;9.204;2022-07-18T07:15:23;12.60;;;3.97;;
49502;SDS011;35409;48.776;9.204;2022-07-18T07:17:49;4.93;;;3.10;;
49502;SDS011;35409;48.776;9.204;2022-07-18T07:20:16;7.15;;;3.15;;
49502;SDS011;35409;48.776;9.204;2022-07-18T07:22:45;6.75;;;3.03;;
49502;SDS011;35409;48.776;9.204;2022-07-18T07:25:18;8.35;;;3.42;;
49502;SDS011;35409;48.776;9.204;2022-07-18T07:27:45;11.25;;;3.28;;
49502;SDS011;35409;48.776;9.204;2022-07-18T07:30:11;8.40;;;3.17;;
49502;SDS011;35409;48.776;9.204;2022-07-18T07:32:40;6.78;;;3.38;;
49502;SDS011;35409;48.776;9.204;2022-07-18T07:35:08;5.85;;;2.88;;
49502;SDS011;35409;48.776;9.204;2022-07-18T07:40:07;9.07;;;3.28;;
49502;SDS011;35409;48.776;9.204;2022-07-18T07:42:33;9.55;;;3.20;;
49502;SDS011;35409;48.776;9.204;2022-07-18T07:44:59;9.18;;;2.75;;
49502;SDS011;35409;48.776;9.204;2022-07-18T07:47:24;12.25;;;3.10;;
49502;SDS011;35409;48.776;9.204;2022-07-18T07:49:50;9.45;;;3.10;;
49502;SDS011;35409;48.776;9.204;2022-07-18T07:52:16;5.90;;;3.08;;
49502;SDS011;35409;48.776;9.204;2022-07-18T07:54:43;4.68;;;2.35;;
49502;SDS011;35409;48.776;9.204;2022-07-18T07:57:12;5.80;;;2.60;;
49502;SDS011;35409;48.776;9.204;2022-07-18T07:59:38;4.93;;;2.45;;
49502;SDS011;35409;48.776;9.204;2022-07-18T08:02:03;6.32;;;2.70;;
49502;SDS011;35409;48.776;9.204;2022-07-18T08:04:29;11.68;;;2.75;;
49502;SDS011;35409;48.776;9.204;2022-07-18T08:06:55;9.63;;;3.00;;
49502;SDS011;35409;48.776;9.204;2022-07-18T08:09:21;14.27;;;3.00;;
49502;SDS011;35409;48.776;9.204;2022-07-18T08:11:47;6.53;;;2.60;;
49502;SDS011;35409;48.776;9.204;2022-07-18T08:14:12;7.30;;;2.90;;
49502;SDS011;35409;48.776;9.204;2022-07-18T08:16:38;7.35;;;2.83;;
49502;SDS011;35409;48.776;9.204;2022-07-18T08:19:04;5.70;;;2.90;;
49502;SDS011;35409;48.776;9.204;2022-07-18T08:21:29;9.93;;;2.55;;
49502;SDS011;35409;48.776;9.204;2022-07-18T08:23:55;8.88;;;3.13;;
49502;SDS011;35409;48.776;9.204;2022-07-18T08:26:21;9.77;;;3.20;;
49502;SDS011;35409;48.776;9.204;2022-07-18T08:28:46;10.32;;;2.80;;
49502;SDS011;35409;48.776;9.204;2022-07-18T08:31:12;14.32;;;2.83;;
49502;SDS011;35409;48.776;9.204;2022-07-18T08:33:38;21.92;;;3.65;;
49502;SDS011;35409;48.776;9.204;2022-07-18T08:36:04;7.40;;;3.20;;
49502;SDS011;35409;48.776;9.204;2022-07-18T08:38:29;8.13;;;2.90;;
49502;SDS011;35409;48.776;9.204;2022-07-18T08:40:56;6.43;;;2.20;;
49502;SDS011;35409;48.776;9.204;2022-07-18T08:43:24;9.50;;;2.20;;
49502;SDS011;35409;48.776;9.204;2022-07-18T08:45:51;8.50;;;2.67;;
49502;SDS011;35409;48.776;9.204;2022-07-18T08:48:20;9.82;;;2.42;;
49502;SDS011;35409;48.776;9.204;2022-07-18T08:50:47;6.30;;;2.50;;
49502;SDS011;35409;48.776;9.204;2022-07-18T08:53:13;6.35;;;2.78;;
49502;SDS011;35409;48.776;9.204;2022-07-18T08:55:41;6.95;;;2.88;;
49502;SDS011;35409;48.776;9.204;2022-07-18T08:58:07;4.25;;;2.60;;
49502;SDS011;35409;48.776;9.204;2022-07-18T09:00:34;6.15;;;2.83;;
49502;SDS011;35409;48.776;9.204;2022-07-18T09:03:00;11.77;;;3.17;;
49502;SDS011;35409;48.776;9.204;2022-07-18T09:05:27;7.25;;;2.60;;
49502;SDS011;35409;48.776;9.204;2022-07-18T09:08:06;8.65;;;2.88;;
49502;SDS011;35409;48.776;9.204;2022-07-18T09:10:40;6.68;;;2.25;;
49502;SDS011;35409;48.776;9.204;2022-07-18T09:13:39;5.88;;;2.08;;
49502;SDS011;35409;48.776;9.204;2022-07-18T09:18:35;6.65;;;2.42;;
49502;SDS011;35409;48.776;9.204;2022-07-18T09:21:06;9.18;;;2.67;;
49502;SDS011;35409;48.776;9.204;2022-07-18T09:23:35;4.60;;;2.17;;
49502;SDS011;35409;48.776;9.204;2022-07-18T09:26:02;6.20;;;1.95;;
49502;SDS011;35409;48.776;9.204;2022-07-18T09:28:29;3.80;;;2.00;;
49502;SDS011;35409;48.776;9.204;2022-07-18T09:31:20;2.95;;;1.98;;
49502;SDS011;35409;48.776;9.204;2022-07-18T09:34:00;3.80;;;1.63;;
49502;SDS011;35409;48.776;9.204;2022-07-18T09:36:27;4.15;;;2.10;;
49502;SDS011;35409;48.776;9.204;2022-07-18T09:38:53;2.40;;;1.70;;
49502;SDS011;35409;48.776;9.204;2022-07-18T09:41:28;4.03;;;2.00;;
49502;SDS011;35409;48.776;9.204;2022-07-18T09:43:57;2.58;;;1.67;;
49502;SDS011;35409;48.776;9.204;2022-07-18T09:46:23;1.45;;;1.35;;
49502;SDS011;35409;48.776;9.204;2022-07-18T09:49:07;4.55;;;2.17;;
49502;SDS011;35409;48.776;9.204;2022-07-18T09:51:33;4.85;;;1.70;;
49502;SDS011;35409;48.776;9.204;2022-07-18T09:53:59;3.25;;;2.03;;
49502;SDS011;35409;48.776;9.204;2022-07-18T09:56:26;4.72;;;2.38;;
49502;SDS011;35409;48.776;9.204;2022-07-18T09:58:53;6.45;;;2.40;;
49502;SDS011;35409;48.776;9.204;2022-07-18T10:01:20;3.38;;;1.50;;
49502;SDS011;35409;48.776;9.204;2022-07-18T10:03:46;7.43;;;1.83;;
49502;SDS011;35409;48.776;9.204;2022-07-18T10:06:14;8.82;;;1.85;;
49502;SDS011;35409;48.776;9.204;2022-07-18T10:08:41;6.95;;;1.83;;
49502;SDS011;35409;48.776;9.204;2022-07-18T10:11:06;4.10;;;2.00;;
49502;SDS011;35409;48.776;9.204;2022-07-18T10:13:34;6.45;;;1.95;;
49502;SDS011;35409;48.776;9.204;2022-07-18T10:16:01;2.35;;;1.70;;
49502;SDS011;35409;48.776;9.204;2022-07-18T10:18:28;5.57;;;1.65;;
49502;SDS011;35409;48.776;9.204;2022-07-18T10:23:40;2.38;;;1.80;;
49502;SDS011;35409;48.776;9.204;2022-07-18T10:31:32;2.80;;;1.52;;
49502;SDS011;35409;48.776;9.204;2022-07-18T10:39:15;2.55;;;1.88;;
49502;SDS011;35409;48.776;9.204;2022-07-18T10:44:40;3.08;;;1.92;;
49502;SDS011;35409;48.776;9.204;2022-07-18T10:57:35;2.50;;;1.80;;
49502;SDS011;35409;48.776;9.204;2022-07-18T11:00:46;1.85;;;1.75;;
49502;SDS011;35409;48.776;9.204;2022-07-18T11:08:36;1.60;;;1.50;;
49502;SDS011;35409;48.776;9.204;2022-07-18T11:13:22;1.48;;;1.33;;
49502;SDS011;35409;48.776;9.204;2022-07-18T11:15:58;2.77;;;1.50;;
49502;SDS011;35409;48.776;9.204;2022-07-18T11:18:27;1.80;;;1.53;;
49502;SDS011;35409;48.776;9.204;2022-07-18T11:20:52;3.42;;;1.85;;
49502;SDS011;35409;48.776;9.204;2022-07-18T11:23:25;3.13;;;1.60;;
49502;SDS011;35409;48.776;9.204;2022-07-18T11:25:56;1.33;;;1.23;;
49502;SDS011;35409;48.776;9.204;2022-07-18T11:28:23;1.10;;;1.10;;
49502;SDS011;35409;48.776;9.204;2022-07-18T11:31:04;1.98;;;1.50;;
49502;SDS011;35409;48.776;9.204;2022-07-18T11:33:33;1.27;;;1.17;;
49502;SDS011;35409;48.776;9.204;2022-07-18T11:38:33;1.55;;;1.45;;
49502;SDS011;35409;48.776;9.204;2022-07-18T11:40:59;1.80;;;1.70;;
49502;SDS011;35409;48.776;9.204;2022-07-18T11:43:26;3.25;;;1.52;;
49502;SDS011;35409;48.776;9.204;2022-07-18T11:46:02;1.65;;;1.55;;
49502;SDS011;35409;48.776;9.204;2022-07-18T11:48:29;1.10;;;1.10;;
49502;SDS011;35409;48.776;9.204;2022-07-18T11:50:55;1.60;;;1.50;;
49502;SDS011;35409;48.776;9.204;2022-07-18T11:53:21;4.50;;;1.52;;
49502;SDS011;35409;48.776;9.204;2022-07-18T11:55:47;2.80;;;1.38;;
49502;SDS011;35409;48.776;9.204;2022-07-18T11:58:14;1.35;;;1.25;;
49502;SDS011;35409;48.776;9.204;2022-07-18T12:00:41;1.58;;;1.25;;
49502;SDS011;35409;48.776;9.204;2022-07-18T12:03:09;2.85;;;1.33;;
49502;SDS011;35409;48.776;9.204;2022-07-18T12:05:36;1.52;;;1.42;;
49502;SDS011;35409;48.776;9.204;2022-07-18T12:16:21;2.03;;;1.60;;
49502;SDS011;35409;48.776;9.204;2022-07-18T12:18:59;5.85;;;1.60;;
49502;SDS011;35409;48.776;9.204;2022-07-18T12:24:33;2.10;;;1.40;;
49502;SDS011;35409;48.776;9.204;2022-07-18T12:27:21;2.70;;;1.45;;
49502;SDS011;35409;48.776;9.204;2022-07-18T12:32:28;2.53;;;1.38;;
49502;SDS011;35409;48.776;9.204;2022-07-18T12:35:16;3.75;;;1.58;;
49502;SDS011;35409;48.776;9.204;2022-07-18T12:38:06;2.67;;;1.33;;
49502;SDS011;35409;48.776;9.204;2022-07-18T12:40:40;2.53;;;1.67;;
49502;SDS011;35409;48.776;9.204;2022-07-18T12:43:08;1.70;;;1.60;;
49502;SDS011;35409;48.776;9.204;2022-07-18T12:45:35;1.90;;;1.60;;
49502;SDS011;35409;48.776;9.204;2022-07-18T12:48:02;2.13;;;1.33;;
49502;SDS011;35409;48.776;9.204;2022-07-18T12:50:30;4.13;;;1.77;;
49502;SDS011;35409;48.776;9.204;2022-07-18T12:52:56;7.80;;;1.80;;
49502;SDS011;35409;48.776;9.204;2022-07-18T12:55:22;1.60;;;1.50;;
49502;SDS011;35409;48.776;9.204;2022-07-18T12:57:49;1.50;;;1.40;;
49502;SDS011;35409;48.776;9.204;2022-07-18T13:00:15;5.60;;;2.15;;
49502;SDS011;35409;48.776;9.204;2022-07-18T13:02:43;2.17;;;1.50;;
49502;SDS011;35409;48.776;9.204;2022-07-18T13:05:10;2.45;;;1.83;;
49502;SDS011;35409;48.776;9.204;2022-07-18T13:07:36;3.70;;;1.58;;
49502;SDS011;35409;48.776;9.204;2022-07-18T13:10:02;4.13;;;1.70;;
49502;SDS011;35409;48.776;9.204;2022-07-18T13:12:28;2.88;;;1.70;;
49502;SDS011;35409;48.776;9.204;2022-07-18T13:14:54;2.05;;;1.85;;
49502;SDS011;35409;48.776;9.204;2022-07-18T13:17:20;2.58;;;1.70;;
49502;SDS011;35409;48.776;9.204;2022-07-18T13:19:45;1.58;;;1.25;;
49502;SDS011;35409;48.776;9.204;2022-07-18T13:22:12;5.25;;;1.60;;
49502;SDS011;35409;48.776;9.204;2022-07-18T13:24:38;3.13;;;1.50;;
49502;SDS011;35409;48.776;9.204;2022-07-18T13:27:04;2.85;;;1.80;;
49502;SDS011;35409;48.776;9.204;2022-07-18T13:29:30;3.70;;;1.30;;
49502;SDS011;35409;48.776;9.204;2022-07-18T13:31:56;1.92;;;1.52;;
49502;SDS011;35409;48.776;9.204;2022-07-18T13:34:22;2.30;;;1.42;;
49502;SDS011;35409;48.776;9.204;2022-07-18T13:36:49;5.68;;;1.45;;
49502;SDS011;35409;48.776;9.204;2022-07-18T13:39:16;3.50;;;1.80;;
49502;SDS011;35409;48.776;9.204;2022-07-18T13:41:43;4.82;;;1.60;;
49502;SDS011;35409;48.776;9.204;2022-07-18T13:44:09;3.65;;;1.60;;
49502;SDS011;35409;48.776;9.204;2022-07-18T13:46:34;3.35;;;1.90;;
49502;SDS011;35409;48.776;9.204;2022-07-18T13:49:00;2.58;;;1.77;;
49502;SDS011;35409;48.776;9.204;2022-07-18T13:51:26;1.95;;;1.63;;
49502;SDS011;35409;48.776;9.204;2022-07-18T13:53:51;3.30;;;1.95;;
49502;SDS011;35409;48.776;9.204;2022-07-18T13:56:17;4.40;;;1.73;;
49502;SDS011;35409;48.776;9.204;2022-07-18T13:58:43;2.97;;;1.88;;
49502;SDS011;35409;48.776;9.204;2022-07-18T14:01:08;1.85;;;1.60;;
49502;SDS011;35409;48.776;9.204;2022-07-18T14:03:36;3.65;;;1.73;;
49502;SDS011;35409;48.776;9.204;2022-07-18T14:06:02;5.80;;;1.80;;
49502;SDS011;35409;48.776;9.204;2022-07-18T14:08:28;1.58;;;1.48;;
49502;SDS011;35409;48.776;9.204;2022-07-18T14:10:53;1.90;;;1.60;;
49502;SDS011;35409;48.776;9.204;2022-07-18T14:13:19;1.88;;;1.60;;
49502;SDS011;35409;48.776;9.204;2022-07-18T14:15:45;3.83;;;2.00;;
49502;SDS011;35409;48.776;9.204;2022-07-18T14:18:10;2.20;;;1.95;;
49502;SDS011;35409;48.776;9.204;2022-07-18T14:20:36;1.52;;;1.45;;
49502;SDS011;35409;48.776;9.204;2022-07-18T14:23:02;1.90;;;1.75;;
49502;SDS011;35409;48.776;9.204;2022-07-18T14:25:27;2.03;;;1.85;;
49502;SDS011;35409;48.776;9.204;2022-07-18T14:27:53;2.20;;;1.50;;
49502;SDS011;35409;48.776;9.204;2022-07-18T14:30:19;3.13;;;1.60;;
49502;SDS011;35409;48.776;9.204;2022-07-18T14:32:44;2.08;;;1.80;;
49502;SDS011;35409;48.776;9.204;2022-07-18T14:35:10;3.17;;;2.17;;
49502;SDS011;35409;48.776;9.204;2022-07-18T14:37:36;4.18;;;1.73;;
49502;SDS011;35409;48.776;9.204;2022-07-18T14:40:03;3.78;;;1.65;;
49502;SDS011;35409;48.776;9.204;2022-07-18T14:42:29;2.15;;;1.90;;
49502;SDS011;35409;48.776;9.204;2022-07-18T14:44:55;2.05;;;1.70;;
49502;SDS011;35409;48.776;9.204;2022-07-18T14:47:20;4.40;;;1.88;;
49502;SDS011;35409;48.776;9.204;2022-07-18T14:49:47;2.28;;;2.08;;
49502;SDS011;35409;48.776;9.204;2022-07-18T14:52:12;2.05;;;1.60;;
49502;SDS011;35409;48.776;9.204;2022-07-18T14:54:38;2.78;;;1.83;;
49502;SDS011;35409;48.776;9.204;2022-07-18T14:57:04;3.42;;;1.90;;
49502;SDS011;35409;48.776;9.204;2022-07-18T14:59:30;1.90;;;1.80;;
49502;SDS011;35409;48.776;9.204;2022-07-18T15:01:56;4.03;;;1.77;;
49502;SDS011;35409;48.776;9.204;2022-07-18T15:04:24;4.25;;;2.38;;
49502;SDS011;35409;48.776;9.204;2022-07-18T15:06:50;3.88;;;1.92;;
49502;SDS011;35409;48.776;9.204;2022-07-18T15:09:16;2.28;;;2.00;;
49502;SDS011;35409;48.776;9.204;2022-07-18T15:11:42;3.28;;;2.10;;
49502;SDS011;35409;48.776;9.204;2022-07-18T15:14:08;3.53;;;1.95;;
49502;SDS011;35409;48.776;9.204;2022-07-18T15:16:34;2.33;;;1.60;;
49502;SDS011;35409;48.776;9.204;2022-07-18T15:19:00;4.45;;;2.53;;
49502;SDS011;35409;48.776;9.204;2022-07-18T15:21:26;2.30;;;2.10;;
49502;SDS011;35409;48.776;9.204;2022-07-18T15:23:52;1.92;;;1.83;;
49502;SDS011;35409;48.776;9.204;2022-07-18T15:26:19;7.10;;;2.00;;
49502;SDS011;35409;48.776;9.204;2022-07-18T15:28:45;21.35;;;2.72;;
49502;SDS011;35409;48.776;9.204;2022-07-18T15:31:10;4.63;;;1.67;;
49502;SDS011;35409;48.776;9.204;2022-07-18T15:33:37;18.98;;;2.75;;
49502;SDS011;35409;48.776;9.204;2022-07-18T15:36:03;2.47;;;1.77;;
49502;SDS011;35409;48.776;9.204;2022-07-18T15:38:29;2.80;;;1.63;;
49502;SDS011;35409;48.776;9.204;2022-07-18T15:40:55;4.55;;;1.58;;
49502;SDS011;35409;48.776;9.204;2022-07-18T15:43:21;1.88;;;1.65;;
49502;SDS011;35409;48.776;9.204;2022-07-18T15:45:47;1.40;;;1.40;;